createdAt,value
2022-09-06T00:01:27.870Z,98347.34
2022-09-06T00:03:54.576Z,98360.38
2022-09-06T00:06:21.272Z,98350.41
2022-09-06T00:08:49.360Z,98347.75
2022-09-06T00:11:17.866Z,98338.16
2022-09-06T00:13:45.059Z,98334.63
2022-09-06T00:16:20.468Z,98324.09
2022-09-06T00:18:47.321Z,98349.16
2022-09-06T00:21:26.807Z,98347.06
2022-09-06T00:23:54.067Z,98340.84
2022-09-06T00:26:22.458Z,98347.84
2022-09-06T00:28:49.774Z,98346.94
2022-09-06T00:31:24.084Z,98349.06
2022-09-06T00:33:51.375Z,98358.34
2022-09-06T00:36:19.751Z,98343.03
2022-09-06T00:39:05.304Z,98355.34
2022-09-06T00:41:43.119Z,98353.94
2022-09-06T00:44:10.111Z,98356.88
2022-09-06T00:46:42.322Z,98353.59
2022-09-06T00:49:24.123Z,98356.19
2022-09-06T00:51:55.827Z,98351.75
2022-09-06T00:54:22.803Z,98355.19
2022-09-06T00:56:50.506Z,98349.84
2022-09-06T00:59:17.837Z,98350.47
2022-09-06T01:01:45.749Z,98357.56
2022-09-06T01:04:13.607Z,98356.19
2022-09-06T01:07:09.416Z,98352.41
2022-09-06T01:10:15.043Z,98357.06
2022-09-06T01:12:52.315Z,98358.34
2022-09-06T01:15:35.600Z,98351.44
2022-09-06T01:18:32.922Z,98353.78
2022-09-06T01:21:37.971Z,98375.56
2022-09-06T01:24:16.294Z,98364.63
2022-09-06T01:27:13.062Z,98367.53
2022-09-06T01:30:00.035Z,98355.00
2022-09-06T01:32:28.430Z,98357.09
2022-09-06T01:35:36.389Z,98344.75
2022-09-06T01:38:05.013Z,98357.56
2022-09-06T01:40:36.289Z,98355.00
2022-09-06T01:43:12.886Z,98355.25
2022-09-06T01:46:00.597Z,98355.72
2022-09-06T01:48:42.513Z,98363.47
2022-09-06T01:51:34.850Z,98371.09
2022-09-06T01:54:16.251Z,98367.06
2022-09-06T01:57:11.657Z,98367.53
2022-09-06T01:59:38.225Z,98359.59
2022-09-06T02:02:15.269Z,98364.63
2022-09-06T02:04:58.307Z,98366.75
2022-09-06T02:07:29.490Z,98360.47
2022-09-06T02:10:16.956Z,98368.00
2022-09-06T02:12:49.900Z,98367.53
2022-09-06T02:15:28.407Z,98356.03
2022-09-06T02:18:06.114Z,98354.44
2022-09-06T02:20:41.603Z,98361.09
2022-09-06T02:23:10.155Z,98342.13
2022-09-06T02:25:53.064Z,98349.59
2022-09-06T02:28:20.142Z,98343.09
2022-09-06T02:30:53.405Z,98338.94
2022-09-06T02:33:24.398Z,98340.03
2022-09-06T02:35:54.527Z,98339.56
2022-09-06T02:38:39.415Z,98350.72
2022-09-06T02:41:07.886Z,98338.25
2022-09-06T02:43:34.566Z,98341.16
2022-09-06T02:46:01.310Z,98332.41
2022-09-06T02:48:28.565Z,98328.44
2022-09-06T02:50:55.261Z,98330.13
2022-09-06T02:53:22.242Z,98334.63
2022-09-06T02:55:49.252Z,98328.22
2022-09-06T02:58:16.173Z,98339.22
2022-09-06T03:00:44.044Z,98339.38
2022-09-06T03:03:10.924Z,98335.78
2022-09-06T03:05:37.571Z,98329.50
2022-09-06T03:08:04.213Z,98335.03
2022-09-06T03:10:30.892Z,98334.00
2022-09-06T03:12:58.543Z,98327.47
2022-09-06T03:15:25.264Z,98330.34
2022-09-06T03:17:51.950Z,98336.44
2022-09-06T03:20:18.773Z,98329.94
2022-09-06T03:22:45.415Z,98331.34
2022-09-06T03:25:12.079Z,98343.84
2022-09-06T03:27:38.772Z,98340.09
2022-09-06T03:30:06.954Z,98331.38
2022-09-06T03:32:35.836Z,98337.63
2022-09-06T03:35:02.791Z,98335.38
2022-09-06T03:37:29.570Z,98335.72
2022-09-06T03:39:56.452Z,98330.91
2022-09-06T03:42:26.060Z,98329.84
2022-09-06T03:44:53.669Z,98331.03
2022-09-06T03:47:21.140Z,98330.69
2022-09-06T03:49:47.925Z,98327.97
2022-09-06T03:52:15.400Z,98311.03
2022-09-06T03:54:42.069Z,98314.88
2022-09-06T03:57:09.688Z,98316.50
2022-09-06T03:59:36.796Z,98327.69
2022-09-06T04:02:03.852Z,98326.88
2022-09-06T04:04:30.590Z,98317.75
2022-09-06T04:06:57.343Z,98312.94
2022-09-06T04:09:24.240Z,98313.09
2022-09-06T04:11:51.024Z,98312.78
2022-09-06T04:14:17.710Z,98327.16
2022-09-06T04:16:44.494Z,98323.69
2022-09-06T04:19:11.150Z,98313.09
2022-09-06T04:21:38.706Z,98304.88
2022-09-06T04:24:05.464Z,98314.47
2022-09-06T04:26:32.172Z,98306.75
2022-09-06T04:28:58.836Z,98299.84
2022-09-06T04:31:26.186Z,98295.97
2022-09-06T04:33:53.663Z,98305.72
2022-09-06T04:36:20.673Z,98311.69
2022-09-06T04:39:06.557Z,98308.44
2022-09-06T04:41:33.262Z,98303.28
2022-09-06T04:43:59.914Z,98304.88
2022-09-06T04:46:30.123Z,98310.53
2022-09-06T04:48:58.086Z,98306.84
2022-09-06T04:51:25.967Z,98318.25
2022-09-06T04:53:53.204Z,98320.09
2022-09-06T04:56:23.204Z,98319.53
2022-09-06T04:58:51.731Z,98321.69
2022-09-06T05:01:18.938Z,98317.53
2022-09-06T05:03:45.890Z,98310.88
2022-09-06T05:06:22.717Z,98292.06
2022-09-06T05:08:50.601Z,98295.22
2022-09-06T05:11:17.777Z,98294.31
2022-09-06T05:13:46.955Z,98308.63
2022-09-06T05:16:14.135Z,98319.88
2022-09-06T05:18:40.877Z,98304.13
2022-09-06T05:21:07.747Z,98315.53
2022-09-06T05:23:34.620Z,98313.22
2022-09-06T05:26:01.460Z,98313.47
2022-09-06T05:28:28.171Z,98321.81
2022-09-06T05:31:09.655Z,98337.59
2022-09-06T05:33:37.399Z,98343.56
2022-09-06T05:36:07.646Z,98350.47
2022-09-06T05:38:40.294Z,98342.06
2022-09-06T05:41:06.885Z,98344.38
2022-09-06T05:43:33.488Z,98339.06
2022-09-06T05:46:00.325Z,98348.16
2022-09-06T05:48:27.093Z,98355.97
2022-09-06T05:51:12.428Z,98346.78
2022-09-06T05:53:45.391Z,98345.97
2022-09-06T05:56:14.830Z,98355.44
2022-09-06T05:58:41.610Z,98358.34
2022-09-06T06:01:21.658Z,98352.41
2022-09-06T06:03:55.229Z,98339.97
2022-09-06T06:06:23.261Z,98331.44
2022-09-06T06:08:50.441Z,98342.78
2022-09-06T06:11:17.879Z,98349.59
2022-09-06T06:13:45.109Z,98348.94
2022-09-06T06:16:19.818Z,98345.34
2022-09-06T06:18:51.740Z,98344.84
2022-09-06T06:21:31.794Z,98335.25
2022-09-06T06:24:04.533Z,98326.75
2022-09-06T06:26:37.093Z,98328.66
2022-09-06T06:29:05.796Z,98327.25
2022-09-06T06:31:34.252Z,98328.03
2022-09-06T06:34:03.659Z,98314.88
2022-09-06T06:36:33.911Z,98320.56
2022-09-06T06:39:19.254Z,98329.88
2022-09-06T06:41:50.668Z,98321.91
2022-09-06T06:44:17.270Z,98327.13
2022-09-06T06:46:43.865Z,98318.34
2022-09-06T06:49:11.271Z,98311.97
2022-09-06T06:51:38.008Z,98325.13
2022-09-06T06:54:05.842Z,98323.41
2022-09-06T06:56:40.698Z,98323.03
2022-09-06T06:59:08.142Z,98328.75
2022-09-06T07:01:36.556Z,98314.94
2022-09-06T07:04:04.818Z,98311.94
2022-09-06T07:12:19.053Z,98315.34
2022-09-06T07:14:45.818Z,98311.66
2022-09-06T07:17:12.420Z,98310.63
2022-09-06T07:22:25.688Z,98324.56
2022-09-06T07:24:52.336Z,98311.50
2022-09-06T07:30:06.428Z,98335.38
2022-09-06T07:32:36.415Z,98330.06
2022-09-06T07:35:03.221Z,98316.72
2022-09-06T07:37:29.875Z,98332.22
2022-09-06T07:39:56.602Z,98324.47
2022-09-06T07:42:23.347Z,98333.56
2022-09-06T07:44:49.982Z,98327.97
2022-09-06T07:53:10.788Z,98324.72
2022-09-06T07:55:39.089Z,98326.31
2022-09-06T07:58:05.781Z,98326.00
2022-09-06T08:00:32.755Z,98329.97
2022-09-06T08:02:59.418Z,98336.41
2022-09-06T08:10:59.345Z,98336.91
2022-09-06T08:13:25.947Z,98336.41
2022-09-06T08:16:06.375Z,98332.38
2022-09-06T08:18:34.541Z,98339.34
2022-09-06T08:21:13.283Z,98335.41
2022-09-06T08:23:51.807Z,98327.13
2022-09-06T08:26:21.381Z,98324.72
2022-09-06T08:28:52.396Z,98326.31
2022-09-06T08:31:19.736Z,98324.69
2022-09-06T08:33:47.682Z,98327.38
2022-09-06T08:36:15.297Z,98332.69
2022-09-06T08:39:06.790Z,98335.06
2022-09-06T08:41:49.372Z,98334.22
2022-09-06T08:47:21.783Z,98340.09
2022-09-06T08:49:55.249Z,98337.09
2022-09-06T08:52:49.564Z,98335.41
2022-09-06T08:55:48.013Z,98337.31
2022-09-06T08:58:37.188Z,98329.75
2022-09-06T09:01:18.100Z,98329.47
2022-09-06T09:03:46.468Z,98319.06
2022-09-06T09:06:13.112Z,98330.91
2022-09-06T09:09:07.997Z,98336.50
2022-09-06T09:11:36.322Z,98340.47
2022-09-06T09:14:18.593Z,98327.53
2022-09-06T09:16:45.759Z,98334.69
2022-09-06T09:19:13.667Z,98318.03
2022-09-06T09:21:40.700Z,98325.41
2022-09-06T09:24:15.424Z,98327.06
2022-09-06T09:26:56.098Z,98316.00
2022-09-06T09:29:27.453Z,98308.72
2022-09-06T09:31:56.650Z,98294.94
2022-09-06T09:34:33.766Z,98302.06
2022-09-06T09:40:26.381Z,98283.03
2022-09-06T09:43:08.850Z,98280.19
2022-09-06T09:45:35.472Z,98289.00
2022-09-06T09:48:28.264Z,98285.84
2022-09-06T09:50:56.065Z,98288.06
2022-09-06T09:53:24.496Z,98272.81
2022-09-06T09:55:59.401Z,98264.47
2022-09-06T09:58:36.791Z,98274.00
2022-09-06T10:01:33.006Z,98276.97
2022-09-06T10:09:39.312Z,98267.50
2022-09-06T10:12:07.314Z,98268.56
2022-09-06T10:14:49.582Z,98265.91
2022-09-06T10:17:37.320Z,98266.94
2022-09-06T10:20:12.362Z,98259.22
2022-09-06T10:23:00.207Z,98261.72
2022-09-06T10:25:49.565Z,98267.03
2022-09-06T10:28:39.105Z,98264.59
2022-09-06T10:31:39.212Z,98268.63
2022-09-06T10:34:27.254Z,98272.31
2022-09-06T10:37:15.785Z,98276.91
2022-09-06T10:39:56.677Z,98273.69
2022-09-06T10:42:59.336Z,98263.19
2022-09-06T10:45:49.888Z,98257.69
2022-09-06T10:48:35.706Z,98261.59
2022-09-06T10:51:50.356Z,98256.50
2022-09-06T10:54:25.149Z,98249.41
2022-09-06T11:00:13.532Z,98245.75
2022-09-06T11:06:06.902Z,98240.69
2022-09-06T11:08:47.315Z,98241.59
2022-09-06T11:11:36.736Z,98239.72
2022-09-06T11:14:13.129Z,98239.28
2022-09-06T11:16:57.719Z,98227.94
2022-09-06T11:19:38.809Z,98238.19
2022-09-06T11:22:34.315Z,98230.06
2022-09-06T11:25:35.119Z,98225.78
2022-09-06T11:28:10.803Z,98219.31
2022-09-06T11:30:42.866Z,98214.56
2022-09-06T11:33:25.128Z,98224.53
2022-09-06T11:35:56.740Z,98217.25
2022-09-06T11:38:43.083Z,98217.25
2022-09-06T11:41:40.033Z,98215.66
2022-09-06T11:45:12.797Z,98209.34
2022-09-06T11:47:42.642Z,98199.50
2022-09-06T11:50:54.012Z,98192.06
2022-09-06T11:53:24.065Z,98203.78
2022-09-06T11:55:59.611Z,98199.34
2022-09-06T11:58:53.587Z,98202.00
2022-09-06T12:01:20.814Z,98204.22
2022-09-06T12:04:09.870Z,98197.09
2022-09-06T12:07:03.565Z,98201.50
2022-09-06T12:09:39.378Z,98206.56
2022-09-06T12:12:06.409Z,98205.63
2022-09-06T12:14:42.621Z,98195.41
2022-09-06T12:17:09.754Z,98197.09
2022-09-06T12:20:06.595Z,98190.53
2022-09-06T12:22:33.259Z,98192.63
2022-09-06T12:25:08.706Z,98189.94
2022-09-06T12:27:39.633Z,98189.44
2022-09-06T12:30:13.745Z,98197.66
2022-09-06T12:32:45.748Z,98182.34
2022-09-06T12:38:17.094Z,98183.69
2022-09-06T12:40:51.893Z,98186.91
2022-09-06T12:43:20.171Z,98177.38
2022-09-06T12:45:51.631Z,98179.66
2022-09-06T12:48:35.419Z,98175.19
2022-09-06T12:51:07.958Z,98172.00
2022-09-06T12:53:35.579Z,98165.72
2022-09-06T12:56:09.660Z,98168.78
2022-09-06T12:58:38.721Z,98170.72
2022-09-06T13:01:27.419Z,98162.63
2022-09-06T13:04:39.763Z,98163.31
2022-09-06T13:07:14.370Z,98152.78
2022-09-06T13:09:46.948Z,98155.34
2022-09-06T13:12:37.180Z,98161.69
2022-09-06T13:15:19.686Z,98150.19
2022-09-06T13:17:47.206Z,98141.78
2022-09-06T13:20:27.394Z,98138.56
2022-09-06T13:23:07.138Z,98136.34
2022-09-06T13:25:33.778Z,98137.63
2022-09-06T13:28:02.470Z,98132.50
2022-09-06T13:31:03.464Z,98135.56
2022-09-06T13:33:30.960Z,98126.78
2022-09-06T13:36:28.009Z,98133.59
2022-09-06T13:39:05.976Z,98123.47
2022-09-06T13:41:38.888Z,98123.44
2022-09-06T13:44:15.795Z,98117.41
2022-09-06T13:46:42.658Z,98122.56
2022-09-06T13:49:09.424Z,98120.22
2022-09-06T13:51:39.241Z,98112.03
2022-09-06T13:54:15.837Z,98115.03
2022-09-06T13:56:46.152Z,98105.63
2022-09-06T13:59:13.016Z,98115.16
2022-09-06T14:01:43.244Z,98110.16
2022-09-06T14:04:14.671Z,98109.53
2022-09-06T14:06:41.877Z,98098.88
2022-09-06T14:09:09.319Z,98107.50
2022-09-06T14:11:37.028Z,98103.09
2022-09-06T14:14:04.944Z,98100.88
2022-09-06T14:16:33.416Z,98098.59
2022-09-06T14:19:00.099Z,98099.72
2022-09-06T14:21:26.771Z,98101.00
2022-09-06T14:23:54.009Z,98102.25
2022-09-06T14:26:22.425Z,98102.59
2022-09-06T14:28:49.993Z,98086.34
2022-09-06T14:31:25.852Z,98094.66
2022-09-06T14:33:54.634Z,98094.97
2022-09-06T14:36:26.845Z,98095.41
2022-09-06T14:39:01.423Z,98093.34
2022-09-06T14:41:28.860Z,98086.16
2022-09-06T14:43:57.884Z,98094.91
2022-09-06T14:46:27.358Z,98085.19
2022-09-06T14:49:12.357Z,98076.81
2022-09-06T14:51:40.608Z,98082.09
2022-09-06T14:54:11.393Z,98075.31
2022-09-06T14:56:41.146Z,98069.66
2022-09-06T14:59:09.156Z,98076.75
2022-09-06T15:01:38.594Z,98069.94
2022-09-06T15:04:09.218Z,98063.34
2022-09-06T15:06:40.171Z,98054.69
2022-09-06T15:09:08.050Z,98062.94
2022-09-06T15:11:40.902Z,98058.31
2022-09-06T15:14:17.152Z,98053.91
2022-09-06T15:16:46.569Z,98047.91
2022-09-06T15:19:13.897Z,98045.25
2022-09-06T15:21:41.084Z,98034.72
2022-09-06T15:24:11.691Z,98052.88
2022-09-06T15:26:40.957Z,98045.53
2022-09-06T15:29:09.854Z,98041.44
2022-09-06T15:31:38.003Z,98038.78
2022-09-06T15:34:06.068Z,98048.44
2022-09-06T15:36:33.355Z,98042.47
2022-09-06T15:39:14.148Z,98033.69
2022-09-06T15:41:41.247Z,98034.81
2022-09-06T15:44:16.933Z,98034.34
2022-09-06T15:46:50.110Z,98037.38
2022-09-06T15:49:28.136Z,98026.94
2022-09-06T15:51:58.677Z,98031.09
2022-09-06T15:54:45.567Z,98027.28
2022-09-06T15:57:16.233Z,98024.84
2022-09-06T15:59:43.210Z,98023.28
2022-09-06T16:02:10.745Z,98027.09
2022-09-06T16:04:37.545Z,98020.75
2022-09-06T16:07:05.687Z,98020.41
2022-09-06T16:09:32.297Z,98027.84
2022-09-06T16:11:58.971Z,98018.84
2022-09-06T16:14:25.920Z,98013.59
2022-09-06T16:16:54.686Z,98017.72
2022-09-06T16:19:21.560Z,98016.28
2022-09-06T16:21:48.233Z,98021.41
2022-09-06T16:24:17.399Z,98017.06
2022-09-06T16:26:49.104Z,98015.13
2022-09-06T16:29:18.141Z,98013.72
2022-09-06T16:31:45.739Z,98019.75
2022-09-06T16:34:14.071Z,98016.47
2022-09-06T16:36:41.276Z,98012.97
2022-09-06T16:39:10.922Z,98015.69
2022-09-06T16:41:42.417Z,98003.25
2022-09-06T16:44:16.508Z,98012.47
2022-09-06T16:46:50.191Z,98009.13
2022-09-06T16:49:19.024Z,98008.66
2022-09-06T16:51:48.412Z,98010.41
2022-09-06T16:54:16.176Z,98002.28
2022-09-06T16:56:43.456Z,98003.88
2022-09-06T16:59:12.230Z,98004.06
2022-09-06T17:01:45.080Z,98011.84
2022-09-06T17:04:15.498Z,98005.31
2022-09-06T17:06:44.418Z,98010.22
2022-09-06T17:09:19.072Z,98005.47
2022-09-06T17:11:49.743Z,98012.47
2022-09-06T17:14:16.827Z,97999.91
2022-09-06T17:17:02.216Z,98004.38
2022-09-06T17:19:29.730Z,98004.84
2022-09-06T17:21:56.339Z,98000.44
2022-09-06T17:24:23.211Z,98002.31
2022-09-06T17:26:49.935Z,97994.25
2022-09-06T17:29:16.574Z,97990.25
2022-09-06T17:31:43.340Z,97988.66
2022-09-06T17:34:10.075Z,97990.41
2022-09-06T17:36:37.445Z,97994.22
2022-09-06T17:39:14.971Z,97998.44
2022-09-06T17:41:46.023Z,97998.84
2022-09-06T17:44:16.966Z,98000.53
2022-09-06T17:47:02.661Z,97993.84
2022-09-06T17:49:30.669Z,98000.59
2022-09-06T17:51:58.047Z,97990.22
2022-09-06T17:54:24.853Z,98001.25
2022-09-06T17:56:51.547Z,97998.75
2022-09-06T17:59:18.227Z,97991.59
2022-09-06T18:01:45.924Z,97989.00
2022-09-06T18:04:14.703Z,97996.50
2022-09-06T18:06:43.437Z,98009.03
2022-09-06T18:09:15.421Z,98019.09
2022-09-06T18:11:45.925Z,98013.97
2022-09-06T18:14:17.857Z,98020.16
2022-09-06T18:16:47.031Z,98022.06
2022-09-06T18:19:14.303Z,98023.25
2022-09-06T18:21:41.433Z,98020.72
2022-09-06T18:24:10.231Z,98033.25
2022-09-06T18:26:37.603Z,98027.66
2022-09-06T18:29:11.652Z,98020.41
2022-09-06T18:31:39.599Z,98023.84
2022-09-06T18:34:07.802Z,98037.13
2022-09-06T18:36:35.183Z,98032.63
2022-09-06T18:39:13.231Z,98032.16
2022-09-06T18:41:58.517Z,98033.81
2022-09-06T18:44:26.702Z,98032.81
2022-09-06T18:46:55.807Z,98031.50
2022-09-06T18:49:22.597Z,98038.47
2022-09-06T18:51:50.276Z,98031.59
2022-09-06T18:54:17.366Z,98042.81
2022-09-06T18:56:48.887Z,98042.63
2022-09-06T18:59:16.912Z,98039.53
2022-09-06T19:01:44.019Z,98040.16
2022-09-06T19:04:12.137Z,98038.97
2022-09-06T19:06:43.732Z,98037.75
2022-09-06T19:09:14.964Z,98035.50
2022-09-06T19:11:43.402Z,98030.69
2022-09-06T19:14:10.175Z,98036.69
2022-09-06T19:16:36.921Z,98034.88
2022-09-06T19:19:11.700Z,98031.63
2022-09-06T19:21:42.078Z,98026.34
2022-09-06T19:24:11.768Z,98029.59
2022-09-06T19:26:41.851Z,98027.50
2022-09-06T19:29:15.130Z,98025.50
2022-09-06T19:31:43.667Z,98031.31
2022-09-06T19:34:12.167Z,98026.94
2022-09-06T19:36:39.250Z,98026.00
2022-09-06T19:39:09.691Z,98026.41
2022-09-06T19:41:38.985Z,98023.13
2022-09-06T19:44:08.383Z,98021.09
2022-09-06T19:46:36.143Z,98028.47
2022-09-06T19:49:03.516Z,98026.66
2022-09-06T19:51:30.197Z,98024.81
2022-09-06T19:54:00.383Z,98026.94
2022-09-06T19:56:31.545Z,98022.19
2022-09-06T19:59:09.968Z,98035.44
2022-09-06T20:01:38.763Z,98037.69
2022-09-06T20:04:08.697Z,98038.81
2022-09-06T20:06:36.190Z,98047.66
2022-09-06T20:09:06.779Z,98035.41
2022-09-06T20:11:36.180Z,98026.38
2022-09-06T20:14:03.555Z,98026.06
2022-09-06T20:16:30.750Z,98014.84
2022-09-06T20:18:59.005Z,98022.31
2022-09-06T20:21:27.430Z,98019.91
2022-09-06T20:23:57.086Z,98008.69
2022-09-06T20:26:25.839Z,97997.78
2022-09-06T20:28:58.259Z,98002.84
2022-09-06T20:31:28.770Z,98011.44
2022-09-06T20:33:56.429Z,98002.56
2022-09-06T20:36:23.215Z,97993.78
2022-09-06T20:39:09.616Z,97985.28
2022-09-06T20:41:37.489Z,97992.00
2022-09-06T20:44:04.745Z,97977.09
2022-09-06T20:46:35.388Z,97987.19
2022-09-06T20:49:04.756Z,97989.34
2022-09-06T20:51:34.207Z,97989.88
2022-09-06T20:54:02.875Z,97986.66
2022-09-06T20:56:37.085Z,97980.88
2022-09-06T20:59:09.091Z,97992.09
2022-09-06T21:01:46.519Z,97987.84
2022-09-06T21:04:16.507Z,97987.25
2022-09-06T21:06:45.740Z,97990.16
2022-09-06T21:09:14.825Z,97986.41
2022-09-06T21:11:42.528Z,97981.91
2022-09-06T21:14:10.191Z,97992.59
2022-09-06T21:16:38.490Z,98001.09
2022-09-06T21:19:09.220Z,97998.72
2022-09-06T21:21:37.294Z,98002.97
2022-09-06T21:24:07.024Z,97999.78
2022-09-06T21:26:33.906Z,97999.50
2022-09-06T21:29:00.627Z,98009.38
2022-09-06T21:31:36.582Z,98011.75
2022-09-06T21:34:09.784Z,98004.00
2022-09-06T21:36:40.169Z,98011.50
2022-09-06T21:39:12.200Z,98012.56
2022-09-06T21:41:42.388Z,98021.63
2022-09-06T21:44:10.448Z,98024.81
2022-09-06T21:46:39.235Z,98022.44
2022-09-06T21:49:10.213Z,98019.50
2022-09-06T21:51:37.134Z,98010.97
2022-09-06T21:54:05.790Z,98020.56
2022-09-06T21:56:35.818Z,98019.25
2022-09-06T21:59:03.920Z,98014.19
2022-09-06T22:01:33.093Z,98015.50
2022-09-06T22:04:00.530Z,98016.88
2022-09-06T22:06:30.419Z,98025.16
2022-09-06T22:09:03.811Z,98033.97
2022-09-06T22:11:34.202Z,98035.00
2022-09-06T22:14:06.090Z,98036.34
2022-09-06T22:16:36.735Z,98031.81
2022-09-06T22:19:05.948Z,98021.44
2022-09-06T22:21:33.843Z,98029.69
2022-09-06T22:24:05.992Z,98026.25
2022-09-06T22:26:36.573Z,98028.06
2022-09-06T22:29:07.498Z,98025.69
2022-09-06T22:31:35.589Z,98025.44
2022-09-06T22:34:03.137Z,98024.34
2022-09-06T22:36:29.794Z,98032.88
2022-09-06T22:39:06.778Z,98023.28
2022-09-06T22:41:34.149Z,98033.41
2022-09-06T22:44:02.439Z,98024.84
2022-09-06T22:46:30.012Z,98026.97
2022-09-06T22:48:57.123Z,98022.16
2022-09-06T22:51:23.875Z,98028.03
2022-09-06T22:53:50.817Z,98030.69
2022-09-06T22:56:17.973Z,98026.13
2022-09-06T22:58:44.653Z,98031.47
2022-09-06T23:01:16.146Z,98024.53
2022-09-06T23:03:43.762Z,98018.13
2022-09-06T23:06:10.542Z,98009.91
2022-09-06T23:08:39.407Z,98010.94
2022-09-06T23:11:11.619Z,98004.03
2022-09-06T23:13:43.483Z,98006.97
2022-09-06T23:16:14.261Z,98008.84
2022-09-06T23:18:40.844Z,98005.63
2022-09-06T23:21:11.820Z,97996.03
2022-09-06T23:23:40.459Z,97992.84
2022-09-06T23:26:16.273Z,97995.25
2022-09-06T23:28:43.523Z,97988.59
2022-09-06T23:31:15.488Z,97980.59
2022-09-06T23:33:42.411Z,97978.47
2022-09-06T23:36:12.807Z,97976.38
2022-09-06T23:38:52.838Z,97978.47
2022-09-06T23:41:19.489Z,97976.63
2022-09-06T23:43:46.138Z,97975.81
2022-09-06T23:46:15.032Z,97974.75
2022-09-06T23:48:43.463Z,97971.56
2022-09-06T23:51:11.109Z,97967.81
2022-09-06T23:53:39.372Z,97971.56
2022-09-06T23:56:06.971Z,97964.91
2022-09-06T23:58:34.446Z,97959.31
